createdAt,value
2023-01-07T00:01:26.593Z,10.73
2023-01-07T00:03:54.544Z,10.71
2023-01-07T00:06:23.677Z,10.64
2023-01-07T00:08:51.632Z,10.60
2023-01-07T00:11:20.667Z,10.58
2023-01-07T00:13:50.246Z,10.62
2023-01-07T00:16:19.573Z,10.66
2023-01-07T00:18:46.883Z,10.67
2023-01-07T00:21:16.463Z,10.64
2023-01-07T00:23:44.821Z,10.70
2023-01-07T00:26:14.048Z,10.72
2023-01-07T00:28:42.523Z,10.68
2023-01-07T00:31:12.375Z,10.69
2023-01-07T00:34:06.896Z,10.70
2023-01-07T00:36:44.588Z,10.69
2023-01-07T00:39:20.345Z,10.67
2023-01-07T00:42:06.922Z,10.68
2023-01-07T00:44:34.245Z,10.64
2023-01-07T00:47:00.900Z,10.62
2023-01-07T00:49:27.501Z,10.62
2023-01-07T00:51:53.973Z,10.63
2023-01-07T00:54:21.048Z,10.62
2023-01-07T00:56:47.523Z,10.58
2023-01-07T00:59:13.894Z,10.55
2023-01-07T01:01:41.028Z,10.49
2023-01-07T01:04:08.156Z,10.56
2023-01-07T01:06:34.726Z,10.55
2023-01-07T01:09:01.336Z,10.57
2023-01-07T01:11:27.744Z,10.55
2023-01-07T01:13:54.199Z,10.56
2023-01-07T01:16:20.735Z,10.60
2023-01-07T01:18:48.543Z,10.60
2023-01-07T01:21:16.008Z,10.61
2023-01-07T01:23:43.070Z,10.66
2023-01-07T01:26:12.984Z,10.62
2023-01-07T01:28:39.575Z,10.68
2023-01-07T01:31:08.370Z,10.65
2023-01-07T01:33:53.768Z,10.55
2023-01-07T01:36:20.323Z,10.58
2023-01-07T01:38:46.818Z,10.55
2023-01-07T01:41:18.270Z,10.52
2023-01-07T01:43:47.006Z,10.56
2023-01-07T01:46:23.728Z,10.51
2023-01-07T01:49:02.668Z,10.58
2023-01-07T01:51:36.150Z,10.58
2023-01-07T01:54:06.740Z,10.53
2023-01-07T01:56:37.820Z,10.52
2023-01-07T01:59:08.986Z,10.45
2023-01-07T02:01:38.491Z,10.49
2023-01-07T02:04:13.308Z,10.57
2023-01-07T02:07:00.592Z,10.58
2023-01-07T02:09:28.814Z,10.55
2023-01-07T02:12:23.733Z,10.47
2023-01-07T02:15:14.155Z,10.53
2023-01-07T02:18:11.671Z,10.55
2023-01-07T02:20:48.821Z,10.46
2023-01-07T02:24:21.451Z,10.46
2023-01-07T02:27:02.958Z,10.48
2023-01-07T02:30:03.717Z,10.47
2023-01-07T02:32:51.884Z,10.51
2023-01-07T02:36:01.796Z,10.46
2023-01-07T02:38:51.379Z,10.48
2023-01-07T02:41:30.896Z,10.46
2023-01-07T02:44:05.908Z,10.40
2023-01-07T02:47:01.007Z,10.45
2023-01-07T02:49:27.442Z,10.48
2023-01-07T02:51:53.965Z,10.50
2023-01-07T02:54:26.915Z,10.54
2023-01-07T02:57:24.366Z,10.51
2023-01-07T03:00:37.168Z,10.43
2023-01-07T03:03:15.802Z,10.49
2023-01-07T03:05:58.378Z,10.54
2023-01-07T03:08:49.510Z,10.51
2023-01-07T03:11:19.679Z,10.46
2023-01-07T03:13:53.731Z,10.45
2023-01-07T03:16:36.354Z,10.42
2023-01-07T03:19:18.498Z,10.48
2023-01-07T03:21:47.673Z,10.53
2023-01-07T03:24:15.876Z,10.55
2023-01-07T03:26:48.660Z,10.54
2023-01-07T03:29:17.413Z,10.50
2023-01-07T03:32:01.489Z,10.50
2023-01-07T03:34:30.403Z,10.47
2023-01-07T03:37:03.828Z,10.51
2023-01-07T03:39:35.209Z,10.57
2023-01-07T03:42:27.397Z,10.61
2023-01-07T03:44:54.599Z,10.58
2023-01-07T03:47:24.006Z,10.57
2023-01-07T03:49:50.742Z,10.59
2023-01-07T03:52:17.187Z,10.57
2023-01-07T03:54:43.632Z,10.58
2023-01-07T03:57:10.188Z,10.57
2023-01-07T03:59:36.673Z,10.56
2023-01-07T04:02:04.740Z,10.50
2023-01-07T04:04:32.330Z,10.47
2023-01-07T04:06:59.198Z,10.45
2023-01-07T04:09:26.588Z,10.43
2023-01-07T04:11:53.191Z,10.43
2023-01-07T04:14:19.561Z,10.39
2023-01-07T04:16:46.004Z,10.34
2023-01-07T04:19:12.572Z,10.27
2023-01-07T04:21:39.304Z,10.24
2023-01-07T04:24:06.205Z,10.30
2023-01-07T04:26:33.756Z,10.31
2023-01-07T04:29:00.601Z,10.31
2023-01-07T04:31:27.969Z,10.30
2023-01-07T04:33:54.970Z,10.23
2023-01-07T04:36:22.005Z,10.27
2023-01-07T04:38:49.035Z,10.22
2023-01-07T04:41:16.545Z,10.26
2023-01-07T04:43:43.088Z,10.27
2023-01-07T04:46:09.605Z,10.28
2023-01-07T04:48:36.458Z,10.26
2023-01-07T04:51:03.360Z,10.25
2023-01-07T04:53:29.809Z,10.25
2023-01-07T04:55:56.357Z,10.25
2023-01-07T04:58:23.143Z,10.24
2023-01-07T05:00:54.469Z,10.25
2023-01-07T05:03:21.991Z,10.21
2023-01-07T05:05:48.499Z,10.25
2023-01-07T05:08:16.081Z,10.18
2023-01-07T05:10:42.460Z,10.19
2023-01-07T05:13:15.233Z,10.22
2023-01-07T05:15:42.441Z,10.18
2023-01-07T05:18:09.675Z,10.20
2023-01-07T05:20:36.258Z,10.22
2023-01-07T05:23:04.536Z,10.21
2023-01-07T05:25:33.842Z,10.19
2023-01-07T05:28:00.858Z,10.21
2023-01-07T05:30:29.352Z,10.15
2023-01-07T05:32:56.342Z,10.13
2023-01-07T05:35:24.232Z,10.23
2023-01-07T05:37:50.834Z,10.18
2023-01-07T05:40:18.542Z,10.12
2023-01-07T05:42:44.991Z,10.16
2023-01-07T05:45:11.724Z,10.13
2023-01-07T05:47:38.156Z,10.05
2023-01-07T05:50:05.011Z,10.02
2023-01-07T05:52:31.378Z,10.11
2023-01-07T05:54:57.776Z,10.12
2023-01-07T05:57:24.211Z,10.18
2023-01-07T05:59:50.645Z,10.12
2023-01-07T06:02:17.727Z,10.14
2023-01-07T06:04:44.202Z,10.09
2023-01-07T06:07:10.639Z,10.06
2023-01-07T06:09:37.072Z,10.00
2023-01-07T06:12:03.558Z,10.03
2023-01-07T06:14:30.026Z,10.02
2023-01-07T06:16:56.423Z,10.00
2023-01-07T06:19:23.128Z,10.02
2023-01-07T06:21:49.975Z,10.03
2023-01-07T06:24:16.403Z,10.03
2023-01-07T06:26:42.856Z,9.95
2023-01-07T06:29:10.944Z,9.94
2023-01-07T06:31:37.393Z,9.95
2023-01-07T06:34:03.805Z,9.90
2023-01-07T06:36:30.223Z,9.96
2023-01-07T06:38:56.616Z,9.99
2023-01-07T06:41:23.025Z,9.97
2023-01-07T06:43:49.466Z,9.86
2023-01-07T06:46:16.176Z,9.87
2023-01-07T06:48:42.617Z,9.87
2023-01-07T06:51:09.055Z,9.90
2023-01-07T06:53:35.409Z,9.90
2023-01-07T06:56:01.874Z,9.87
2023-01-07T06:58:28.269Z,9.88
2023-01-07T07:00:54.764Z,9.86
2023-01-07T07:03:21.139Z,9.84
2023-01-07T07:05:47.500Z,9.83
2023-01-07T07:08:13.927Z,9.82
2023-01-07T07:10:40.350Z,9.83
2023-01-07T07:13:06.743Z,9.70
2023-01-07T07:15:33.145Z,9.66
2023-01-07T07:17:59.587Z,9.68
2023-01-07T07:20:26.009Z,9.72
2023-01-07T07:22:52.454Z,9.74
2023-01-07T07:25:19.061Z,9.71
2023-01-07T07:27:46.639Z,9.75
2023-01-07T07:30:15.058Z,9.76
2023-01-07T07:32:42.640Z,9.69
2023-01-07T07:35:09.943Z,9.60
2023-01-07T07:37:36.823Z,9.63
2023-01-07T07:40:04.752Z,9.71
2023-01-07T07:42:31.322Z,9.68
2023-01-07T07:44:58.687Z,9.72
2023-01-07T07:47:25.062Z,9.80
2023-01-07T07:49:51.474Z,9.76
2023-01-07T07:52:18.476Z,9.77
2023-01-07T07:54:44.917Z,9.75
2023-01-07T07:57:11.313Z,9.75
2023-01-07T07:59:37.792Z,9.79
2023-01-07T08:02:04.219Z,9.84
2023-01-07T08:04:34.045Z,9.87
2023-01-07T08:07:01.718Z,10.02
2023-01-07T08:09:28.218Z,9.98
2023-01-07T08:11:54.749Z,9.95
2023-01-07T08:14:21.315Z,9.86
2023-01-07T08:16:47.672Z,9.85
2023-01-07T08:19:15.063Z,9.89
2023-01-07T08:21:41.707Z,9.82
2023-01-07T08:24:08.303Z,9.79
2023-01-07T08:26:34.740Z,9.76
2023-01-07T08:29:01.145Z,9.80
2023-01-07T08:31:27.637Z,9.88
2023-01-07T08:33:54.049Z,9.85
2023-01-07T08:36:23.852Z,9.86
2023-01-07T08:38:52.352Z,10.00
2023-01-07T08:41:22.621Z,10.05
2023-01-07T08:43:49.221Z,10.01
2023-01-07T08:46:16.105Z,9.83
2023-01-07T08:48:42.546Z,9.76
2023-01-07T08:51:08.977Z,9.81
2023-01-07T08:53:35.397Z,9.84
2023-01-07T08:56:01.802Z,9.88
2023-01-07T08:58:28.264Z,9.78
2023-01-07T09:00:54.745Z,9.78
2023-01-07T09:03:21.473Z,9.83
2023-01-07T09:05:47.869Z,9.84
2023-01-07T09:08:14.549Z,9.86
2023-01-07T09:10:40.914Z,9.87
2023-01-07T09:13:07.860Z,9.90
2023-01-07T09:15:34.366Z,9.88
2023-01-07T09:18:03.468Z,9.85
2023-01-07T09:20:30.644Z,9.92
2023-01-07T09:22:56.998Z,9.95
2023-01-07T09:25:23.399Z,9.86
2023-01-07T09:27:49.942Z,9.91
2023-01-07T09:30:16.609Z,9.90
2023-01-07T09:32:43.792Z,9.83
2023-01-07T09:35:10.675Z,9.85
2023-01-07T09:37:37.555Z,9.87
2023-01-07T09:40:14.383Z,9.87
2023-01-07T09:42:51.762Z,9.85
2023-01-07T09:45:32.456Z,9.90
2023-01-07T09:48:02.697Z,9.97
2023-01-07T09:50:41.188Z,9.93
2023-01-07T09:53:14.262Z,10.00
2023-01-07T09:56:10.983Z,9.94
2023-01-07T09:58:28.985Z,9.98
2023-01-07T10:01:06.745Z,9.91
2023-01-07T10:03:49.265Z,9.93
2023-01-07T10:06:43.967Z,10.03
2023-01-07T10:09:35.901Z,10.06
2023-01-07T10:12:14.303Z,10.12
2023-01-07T10:14:51.876Z,10.16
2023-01-07T10:17:42.527Z,10.10
2023-01-07T10:20:42.636Z,10.19
2023-01-07T10:23:15.916Z,10.15
2023-01-07T10:25:52.556Z,10.17
2023-01-07T10:28:34.239Z,10.13
2023-01-07T10:31:02.693Z,10.15
2023-01-07T10:33:32.679Z,10.27
2023-01-07T10:36:25.489Z,10.34
2023-01-07T10:39:13.721Z,10.34
2023-01-07T10:41:58.719Z,10.28
2023-01-07T10:44:44.154Z,10.32
2023-01-07T10:47:30.278Z,10.31
2023-01-07T10:50:21.832Z,10.40
2023-01-07T10:53:05.487Z,10.55
2023-01-07T10:55:46.146Z,10.52
2023-01-07T10:58:12.579Z,10.44
2023-01-07T11:00:40.261Z,10.50
2023-01-07T11:03:18.236Z,10.61
2023-01-07T11:05:46.687Z,10.50
2023-01-07T11:08:29.138Z,10.70
2023-01-07T11:10:58.015Z,10.72
2023-01-07T11:13:32.061Z,10.63
2023-01-07T11:16:22.070Z,10.66
2023-01-07T11:18:54.909Z,10.66
2023-01-07T11:21:43.384Z,10.70
2023-01-07T11:24:19.845Z,10.71
2023-01-07T11:26:46.639Z,10.71
2023-01-07T11:29:29.672Z,10.72
2023-01-07T11:31:58.949Z,10.77
2023-01-07T11:34:27.065Z,10.72
2023-01-07T11:36:54.001Z,10.76
2023-01-07T11:39:23.871Z,10.68
2023-01-07T11:42:32.359Z,10.69
2023-01-07T11:45:23.042Z,10.67
2023-01-07T11:48:04.554Z,10.69
2023-01-07T11:50:41.040Z,10.74
2023-01-07T11:53:13.522Z,10.74
2023-01-07T11:55:41.391Z,10.67
2023-01-07T11:58:28.017Z,10.65
2023-01-07T12:01:08.790Z,10.59
2023-01-07T12:04:02.818Z,10.56
2023-01-07T12:06:38.809Z,10.68
2023-01-07T12:09:24.858Z,10.66
2023-01-07T12:11:53.018Z,10.74
2023-01-07T12:14:25.101Z,10.71
2023-01-07T12:16:51.923Z,10.67
2023-01-07T12:19:41.204Z,10.62
2023-01-07T12:22:28.888Z,10.58
2023-01-07T12:25:13.052Z,10.64
2023-01-07T12:28:01.774Z,10.67
2023-01-07T12:30:54.537Z,10.54
2023-01-07T12:33:38.601Z,10.61
2023-01-07T12:36:12.693Z,10.66
2023-01-07T12:38:47.374Z,10.71
2023-01-07T12:41:20.689Z,10.69
2023-01-07T12:43:57.678Z,10.66
2023-01-07T12:46:28.413Z,10.59
2023-01-07T12:49:04.876Z,10.57
2023-01-07T12:51:39.541Z,10.51
2023-01-07T12:54:52.455Z,10.66
2023-01-07T12:57:28.854Z,10.70
2023-01-07T13:00:18.044Z,10.72
2023-01-07T13:03:05.789Z,10.74
2023-01-07T13:05:45.013Z,10.71
2023-01-07T13:08:25.293Z,10.58
2023-01-07T13:10:58.777Z,10.49
2023-01-07T13:13:32.473Z,10.61
2023-01-07T13:15:59.123Z,10.52
2023-01-07T13:18:25.689Z,10.52
2023-01-07T13:20:52.046Z,10.56
2023-01-07T13:23:31.211Z,10.55
2023-01-07T13:26:15.145Z,10.53
2023-01-07T13:29:04.442Z,10.54
2023-01-07T13:32:08.356Z,10.56
2023-01-07T13:34:45.034Z,10.52
2023-01-07T13:37:27.291Z,10.57
2023-01-07T13:40:25.828Z,10.49
2023-01-07T13:43:00.662Z,10.50
2023-01-07T13:45:34.159Z,10.44
2023-01-07T13:48:05.649Z,10.42
2023-01-07T13:50:43.033Z,10.45
2023-01-07T13:53:15.389Z,10.57
2023-01-07T13:55:48.783Z,10.63
2023-01-07T13:58:30.213Z,10.58
2023-01-07T14:01:07.795Z,10.48
2023-01-07T14:03:50.139Z,10.48
2023-01-07T14:06:23.646Z,10.39
2023-01-07T14:08:57.260Z,10.48
2023-01-07T14:11:29.648Z,10.42
2023-01-07T14:14:21.769Z,10.50
2023-01-07T14:17:02.302Z,10.51
2023-01-07T14:19:45.417Z,10.51
2023-01-07T14:22:17.767Z,10.48
2023-01-07T14:25:08.942Z,10.48
2023-01-07T14:27:57.229Z,10.56
2023-01-07T14:30:32.658Z,10.58
2023-01-07T14:33:02.823Z,10.48
2023-01-07T14:35:33.919Z,10.61
2023-01-07T14:38:00.596Z,10.54
2023-01-07T14:40:26.910Z,10.51
2023-01-07T14:42:54.632Z,10.51
2023-01-07T14:45:36.368Z,10.46
2023-01-07T14:48:08.920Z,10.49
2023-01-07T14:51:03.664Z,10.50
2023-01-07T14:53:57.123Z,10.45
2023-01-07T14:56:47.444Z,10.43
2023-01-07T14:59:23.774Z,10.48
2023-01-07T15:02:27.870Z,10.50
2023-01-07T15:05:31.289Z,10.49
2023-01-07T15:08:20.303Z,10.49
2023-01-07T15:11:09.600Z,10.46
2023-01-07T15:14:00.413Z,10.46
2023-01-07T15:16:30.272Z,10.51
2023-01-07T15:18:57.034Z,10.47
2023-01-07T15:21:47.644Z,10.45
2023-01-07T15:24:19.607Z,10.53
2023-01-07T15:26:51.622Z,10.51
2023-01-07T15:29:43.063Z,10.50
2023-01-07T15:32:26.840Z,10.38
2023-01-07T15:34:53.981Z,10.46
2023-01-07T15:37:20.764Z,10.43
2023-01-07T15:39:57.765Z,10.46
2023-01-07T15:42:27.182Z,10.38
2023-01-07T15:44:56.113Z,10.34
2023-01-07T15:47:41.020Z,10.31
2023-01-07T15:50:30.419Z,10.36
2023-01-07T15:52:59.988Z,10.43
2023-01-07T15:55:29.301Z,10.38
2023-01-07T15:58:12.706Z,10.37
2023-01-07T16:00:39.293Z,10.44
2023-01-07T16:03:05.973Z,10.43
2023-01-07T16:05:32.833Z,10.31
2023-01-07T16:08:01.122Z,10.21
2023-01-07T16:10:32.301Z,10.16
2023-01-07T16:13:04.851Z,10.15
2023-01-07T16:15:34.143Z,10.19
2023-01-07T16:18:04.233Z,10.31
2023-01-07T16:20:36.434Z,10.32
2023-01-07T16:23:08.944Z,10.37
2023-01-07T16:25:39.059Z,10.28
2023-01-07T16:28:07.170Z,10.26
2023-01-07T16:30:39.981Z,10.18
2023-01-07T16:33:06.795Z,10.21
2023-01-07T16:35:36.714Z,10.10
2023-01-07T16:38:04.338Z,10.10
2023-01-07T16:40:37.519Z,10.09
2023-01-07T16:43:05.479Z,10.06
2023-01-07T16:45:34.806Z,10.07
2023-01-07T16:48:22.636Z,9.97
2023-01-07T16:50:49.894Z,10.16
2023-01-07T16:53:24.598Z,10.14
2023-01-07T16:55:55.005Z,10.20
2023-01-07T16:58:38.969Z,10.16
2023-01-07T17:01:06.762Z,10.14
2023-01-07T17:03:47.403Z,9.99
2023-01-07T17:06:14.521Z,9.99
2023-01-07T17:08:48.711Z,10.05
2023-01-07T17:11:24.448Z,10.03
2023-01-07T17:13:50.958Z,10.00
2023-01-07T17:16:32.314Z,9.93
2023-01-07T17:19:22.992Z,9.86
2023-01-07T17:21:49.472Z,9.84
2023-01-07T17:24:46.153Z,9.80
2023-01-07T17:27:21.704Z,9.87
2023-01-07T17:29:49.811Z,9.89
2023-01-07T17:32:16.213Z,9.84
2023-01-07T17:34:42.618Z,9.83
2023-01-07T17:37:13.897Z,9.87
2023-01-07T17:39:40.842Z,9.79
2023-01-07T17:42:40.908Z,9.74
2023-01-07T17:45:08.313Z,9.72
2023-01-07T17:47:34.791Z,9.72
2023-01-07T17:50:01.473Z,9.63
2023-01-07T17:52:28.800Z,9.64
2023-01-07T17:54:55.217Z,9.64
2023-01-07T17:57:21.588Z,9.65
2023-01-07T17:59:48.157Z,9.68
2023-01-07T18:02:19.437Z,9.73
2023-01-07T18:04:45.926Z,9.75
2023-01-07T18:07:14.494Z,9.72
2023-01-07T18:09:42.282Z,9.72
2023-01-07T18:12:30.364Z,9.71
2023-01-07T18:15:04.132Z,9.61
2023-01-07T18:17:30.498Z,9.57
2023-01-07T18:19:57.197Z,9.62
2023-01-07T18:22:25.209Z,9.63
2023-01-07T18:24:51.607Z,9.62
2023-01-07T18:27:18.653Z,9.57
2023-01-07T18:29:45.125Z,9.57
2023-01-07T18:32:11.957Z,9.50
2023-01-07T18:34:38.357Z,9.48
2023-01-07T18:37:04.796Z,9.51
2023-01-07T18:39:31.201Z,9.62
2023-01-07T18:41:57.592Z,9.71
2023-01-07T18:44:24.682Z,9.63
2023-01-07T18:46:51.277Z,9.50
2023-01-07T18:49:17.928Z,9.53
2023-01-07T18:51:46.912Z,9.60
2023-01-07T18:54:13.665Z,9.49
2023-01-07T18:56:40.221Z,9.56
2023-01-07T18:59:06.608Z,9.54
2023-01-07T19:01:33.160Z,9.59
2023-01-07T19:03:59.652Z,9.59
2023-01-07T19:06:26.675Z,9.57
2023-01-07T19:08:54.159Z,9.57
2023-01-07T19:11:20.579Z,9.55
2023-01-07T19:13:46.939Z,9.62
2023-01-07T19:16:13.752Z,9.62
2023-01-07T19:18:40.494Z,9.59
2023-01-07T19:21:10.721Z,9.58
2023-01-07T19:23:37.147Z,9.60
2023-01-07T19:26:06.715Z,9.59
2023-01-07T19:28:33.288Z,9.62
2023-01-07T19:30:59.739Z,9.65
2023-01-07T19:33:26.383Z,9.62
2023-01-07T19:36:09.241Z,9.62
2023-01-07T19:38:44.718Z,9.62
2023-01-07T19:41:14.795Z,9.68
2023-01-07T19:43:41.625Z,9.71
2023-01-07T19:46:08.465Z,9.65
2023-01-07T19:48:34.959Z,9.71
2023-01-07T19:51:03.209Z,9.73
2023-01-07T19:53:30.583Z,9.77
2023-01-07T19:56:01.499Z,9.72
2023-01-07T19:58:28.851Z,9.74
2023-01-07T20:00:55.977Z,9.69
2023-01-07T20:03:22.435Z,9.66
2023-01-07T20:05:48.873Z,9.69
2023-01-07T20:08:15.291Z,9.61
2023-01-07T20:10:41.721Z,9.59
2023-01-07T20:13:08.108Z,9.65
2023-01-07T20:15:34.561Z,9.64
2023-01-07T20:18:00.963Z,9.67
2023-01-07T20:20:27.410Z,9.66
2023-01-07T20:22:54.649Z,9.63
2023-01-07T20:25:21.106Z,9.64
2023-01-07T20:27:47.533Z,9.62
2023-01-07T20:30:13.973Z,9.63
2023-01-07T20:32:40.353Z,9.65
2023-01-07T20:35:07.487Z,9.67
2023-01-07T20:37:34.431Z,9.65
2023-01-07T20:40:00.837Z,9.63
2023-01-07T20:42:27.235Z,9.66
2023-01-07T20:44:53.611Z,9.62
2023-01-07T20:47:20.035Z,9.62
2023-01-07T20:49:46.412Z,9.67
2023-01-07T20:52:12.877Z,9.63
2023-01-07T20:54:39.735Z,9.65
2023-01-07T20:57:06.162Z,9.69
2023-01-07T20:59:32.560Z,9.72
2023-01-07T21:01:59.109Z,9.79
2023-01-07T21:04:28.888Z,9.78
2023-01-07T21:06:55.472Z,9.78
2023-01-07T21:09:22.004Z,9.81
2023-01-07T21:11:48.479Z,9.76
2023-01-07T21:14:14.919Z,9.73
2023-01-07T21:16:41.466Z,9.77
2023-01-07T21:19:08.001Z,9.69
2023-01-07T21:21:34.484Z,9.79
2023-01-07T21:24:00.930Z,9.79
2023-01-07T21:26:27.387Z,9.78
2023-01-07T21:28:58.836Z,9.83
2023-01-07T21:31:26.774Z,9.87
2023-01-07T21:33:57.304Z,9.93
2023-01-07T21:36:25.014Z,9.89
2023-01-07T21:38:56.764Z,9.87
2023-01-07T21:41:24.441Z,9.78
2023-01-07T21:43:51.348Z,9.83
2023-01-07T21:46:17.754Z,9.91
2023-01-07T21:48:46.803Z,9.93
2023-01-07T21:51:25.188Z,9.95
2023-01-07T21:53:55.483Z,10.00
2023-01-07T21:56:23.328Z,9.93
2023-01-07T21:58:49.768Z,9.94
2023-01-07T22:01:17.785Z,9.91
2023-01-07T22:03:47.191Z,9.91
2023-01-07T22:06:18.741Z,9.87
2023-01-07T22:08:45.099Z,9.89
2023-01-07T22:11:13.974Z,9.96
2023-01-07T22:13:40.814Z,9.96
2023-01-07T22:16:08.120Z,9.90
2023-01-07T22:18:34.917Z,9.99
2023-01-07T22:21:01.311Z,9.96
2023-01-07T22:23:27.822Z,9.90
2023-01-07T22:25:54.170Z,9.89
2023-01-07T22:28:23.287Z,9.77
2023-01-07T22:30:54.414Z,9.86
2023-01-07T22:33:22.572Z,9.94
2023-01-07T22:35:50.285Z,9.93
2023-01-07T22:38:18.885Z,10.00
2023-01-07T22:40:45.293Z,10.02
2023-01-07T22:43:16.805Z,10.00
2023-01-07T22:46:00.673Z,9.98
2023-01-07T22:48:33.028Z,10.06
2023-01-07T22:51:10.925Z,10.00
2023-01-07T22:53:37.657Z,9.98
2023-01-07T22:56:04.272Z,10.00
2023-01-07T22:58:30.722Z,10.05
2023-01-07T23:00:57.284Z,10.00
2023-01-07T23:03:24.172Z,10.00
2023-01-07T23:05:51.235Z,9.83
2023-01-07T23:08:17.774Z,9.86
2023-01-07T23:10:44.281Z,9.73
2023-01-07T23:13:11.543Z,9.59
2023-01-07T23:15:38.810Z,9.60
2023-01-07T23:18:06.623Z,9.64
2023-01-07T23:20:34.007Z,9.74
2023-01-07T23:23:03.309Z,9.75
2023-01-07T23:25:29.739Z,9.77
2023-01-07T23:27:56.204Z,9.83
2023-01-07T23:30:23.088Z,9.82
2023-01-07T23:32:49.482Z,9.72
2023-01-07T23:35:16.488Z,9.68
2023-01-07T23:37:42.955Z,9.66
2023-01-07T23:40:10.295Z,9.75
2023-01-07T23:42:36.987Z,9.74
2023-01-07T23:45:06.991Z,9.75
2023-01-07T23:47:34.079Z,9.77
2023-01-07T23:50:00.478Z,9.79
2023-01-07T23:52:26.908Z,9.72
2023-01-07T23:54:53.343Z,9.72
2023-01-07T23:57:19.760Z,9.68
2023-01-07T23:59:46.247Z,9.74
